createdAt,value
2022-08-24T00:00:23.067Z,67.80
2022-08-24T00:02:52.595Z,67.00
2022-08-24T00:05:22.132Z,68.00
2022-08-24T00:07:50.830Z,71.60
2022-08-24T00:10:20.479Z,72.30
2022-08-24T00:12:49.979Z,73.30
2022-08-24T00:15:19.418Z,74.50
2022-08-24T00:17:47.496Z,75.40
2022-08-24T00:20:16.995Z,75.60
2022-08-24T00:22:45.108Z,74.70
2022-08-24T00:25:14.682Z,73.60
2022-08-24T00:27:43.269Z,73.80
2022-08-24T00:30:15.428Z,73.50
2022-08-24T00:32:43.412Z,73.10
2022-08-24T00:35:12.015Z,74.50
2022-08-24T00:37:42.104Z,74.40
2022-08-24T00:40:13.812Z,74.10
2022-08-24T00:42:42.471Z,75.70
2022-08-24T00:45:15.808Z,76.50
2022-08-24T00:47:49.107Z,76.60
2022-08-24T00:50:23.155Z,76.00
2022-08-24T00:52:56.683Z,74.60
2022-08-24T00:55:30.449Z,75.60
2022-08-24T00:58:03.536Z,76.80
2022-08-24T01:00:36.067Z,81.00
2022-08-24T01:03:06.882Z,82.90
2022-08-24T01:05:36.791Z,83.50
2022-08-24T01:08:09.207Z,84.80
2022-08-24T01:10:41.076Z,84.30
2022-08-24T01:13:11.925Z,83.20
2022-08-24T01:15:47.320Z,81.20
2022-08-24T01:18:37.578Z,81.70
2022-08-24T01:21:12.696Z,81.40
2022-08-24T01:23:45.047Z,81.40
2022-08-24T01:26:18.190Z,81.50
2022-08-24T01:28:49.094Z,80.70
2022-08-24T01:31:21.196Z,80.00
2022-08-24T01:33:50.639Z,80.20
2022-08-24T01:36:28.274Z,81.30
2022-08-24T01:39:02.242Z,82.30
2022-08-24T01:41:30.309Z,83.10
2022-08-24T01:43:59.171Z,82.00
2022-08-24T01:46:27.926Z,80.50
2022-08-24T01:48:58.056Z,79.00
2022-08-24T01:51:26.326Z,80.90
2022-08-24T01:53:54.515Z,80.50
2022-08-24T01:56:23.963Z,83.50
2022-08-24T01:58:52.149Z,87.70
2022-08-24T02:01:20.537Z,88.00
2022-08-24T02:03:51.808Z,87.90
2022-08-24T02:06:20.315Z,88.60
2022-08-24T02:08:48.540Z,86.50
2022-08-24T02:11:16.940Z,87.50
2022-08-24T02:13:46.321Z,86.80
2022-08-24T02:16:15.183Z,86.80
2022-08-24T02:18:43.999Z,86.00
2022-08-24T02:21:13.919Z,86.80
2022-08-24T02:23:42.732Z,86.30
2022-08-24T02:26:12.424Z,86.50
2022-08-24T02:28:41.065Z,83.80
2022-08-24T02:31:12.410Z,84.70
2022-08-24T02:33:41.291Z,85.40
2022-08-24T02:36:25.410Z,86.00
2022-08-24T02:38:54.749Z,85.70
2022-08-24T02:41:23.654Z,86.10
2022-08-24T02:43:51.678Z,87.60
2022-08-24T02:46:22.696Z,87.40
2022-08-24T02:48:52.993Z,90.00
2022-08-24T02:51:28.200Z,90.20
2022-08-24T02:53:58.269Z,89.50
2022-08-24T02:56:26.476Z,88.70
2022-08-24T02:58:54.518Z,89.10
2022-08-24T03:01:30.357Z,88.60
2022-08-24T03:03:58.861Z,90.00
2022-08-24T03:06:27.084Z,91.20
2022-08-24T03:08:57.015Z,90.50
2022-08-24T03:11:27.922Z,90.50
2022-08-24T03:13:58.382Z,90.40
2022-08-24T03:16:28.096Z,90.00
2022-08-24T03:18:56.273Z,90.70
2022-08-24T03:21:24.596Z,90.00
2022-08-24T03:23:52.908Z,89.70
2022-08-24T03:26:21.063Z,88.30
2022-08-24T03:28:49.591Z,89.10
2022-08-24T03:31:17.883Z,88.70
2022-08-24T03:33:47.611Z,87.10
2022-08-24T03:36:15.616Z,83.10
2022-08-24T03:38:44.326Z,86.40
2022-08-24T03:41:12.689Z,86.80
2022-08-24T03:43:48.644Z,87.70
2022-08-24T03:46:19.237Z,87.90
2022-08-24T03:48:49.665Z,88.50
2022-08-24T03:51:20.876Z,90.10
2022-08-24T03:53:48.859Z,90.70
2022-08-24T03:56:16.958Z,92.20
2022-08-24T03:58:45.105Z,93.50
2022-08-24T04:01:13.712Z,93.70
2022-08-24T04:03:44.669Z,93.40
2022-08-24T04:06:15.982Z,92.60
2022-08-24T04:08:44.346Z,92.70
2022-08-24T04:11:13.194Z,92.60
2022-08-24T04:13:41.136Z,92.70
2022-08-24T04:16:12.897Z,92.70
2022-08-24T04:18:41.565Z,91.90
2022-08-24T04:21:19.394Z,92.20
2022-08-24T04:23:48.111Z,92.50
2022-08-24T04:26:25.612Z,92.70
2022-08-24T04:29:08.435Z,92.30
2022-08-24T04:31:37.070Z,93.00
2022-08-24T04:34:05.359Z,93.30
2022-08-24T04:36:35.914Z,93.00
2022-08-24T04:39:05.329Z,92.40
2022-08-24T04:41:33.350Z,93.10
2022-08-24T04:44:03.202Z,93.50
2022-08-24T04:46:31.759Z,93.00
2022-08-24T04:48:59.808Z,92.60
2022-08-24T04:51:36.371Z,92.40
2022-08-24T04:54:07.288Z,93.00
2022-08-24T04:56:36.381Z,93.00
2022-08-24T04:59:05.777Z,93.00
2022-08-24T05:01:34.208Z,92.60
2022-08-24T05:04:02.840Z,92.20
2022-08-24T05:06:32.361Z,92.10
2022-08-24T05:09:01.373Z,91.40
2022-08-24T05:11:31.112Z,90.80
2022-08-24T05:14:00.201Z,89.90
2022-08-24T05:16:28.838Z,87.50
2022-08-24T05:19:00.345Z,85.10
2022-08-24T05:21:30.840Z,82.90
2022-08-24T05:23:59.189Z,82.20
2022-08-24T05:26:29.287Z,81.30
2022-08-24T05:29:00.831Z,79.90
2022-08-24T05:31:30.663Z,78.80
2022-08-24T05:33:59.995Z,79.90
2022-08-24T05:36:30.363Z,78.20
2022-08-24T05:39:02.064Z,78.70
2022-08-24T05:41:30.473Z,78.40
2022-08-24T05:44:00.151Z,77.60
2022-08-24T05:46:28.513Z,76.10
2022-08-24T05:48:59.160Z,76.20
2022-08-24T05:51:27.314Z,77.10
2022-08-24T05:53:56.273Z,76.40
2022-08-24T05:56:26.728Z,76.30
2022-08-24T05:58:59.467Z,76.10
2022-08-24T06:01:28.221Z,74.70
2022-08-24T06:03:57.559Z,75.50
2022-08-24T06:06:26.597Z,72.80
2022-08-24T06:08:56.671Z,71.00
2022-08-24T06:11:30.158Z,70.60
2022-08-24T06:14:02.638Z,70.90
2022-08-24T06:16:36.420Z,69.40
2022-08-24T06:19:04.711Z,69.80
2022-08-24T06:21:32.923Z,70.80
2022-08-24T06:24:02.098Z,73.00
2022-08-24T06:26:49.116Z,75.10
2022-08-24T06:29:20.182Z,76.20
2022-08-24T06:31:54.249Z,76.30
2022-08-24T06:34:25.939Z,73.90
2022-08-24T06:36:53.981Z,72.90
2022-08-24T06:39:22.061Z,72.80
2022-08-24T06:41:50.055Z,71.30
2022-08-24T06:44:19.426Z,70.40
2022-08-24T06:46:47.486Z,69.90
2022-08-24T06:49:15.609Z,68.60
2022-08-24T06:51:46.390Z,73.60
2022-08-24T06:54:18.323Z,74.30
2022-08-24T06:56:46.315Z,72.70
2022-08-24T06:59:14.370Z,71.80
2022-08-24T07:01:44.580Z,68.50
2022-08-24T07:04:12.830Z,67.40
2022-08-24T07:06:40.868Z,67.90
2022-08-24T07:09:08.845Z,68.30
2022-08-24T07:11:37.155Z,67.00
2022-08-24T07:19:07.586Z,73.80
2022-08-24T07:21:35.688Z,72.50
2022-08-24T07:24:04.271Z,71.30
2022-08-24T07:26:32.818Z,71.20
2022-08-24T07:29:06.234Z,68.00
2022-08-24T07:31:35.695Z,70.20
2022-08-24T07:34:05.104Z,67.90
2022-08-24T07:36:34.915Z,67.30
2022-08-24T07:39:03.065Z,64.30
2022-08-24T07:41:51.568Z,61.30
2022-08-24T07:44:19.954Z,61.60
2022-08-24T11:16:32.532Z,8.60
2022-08-24T11:19:02.670Z,1.00
2022-08-24T11:21:45.111Z,1.00
2022-08-24T11:24:38.675Z,1.00
2022-08-24T11:27:10.255Z,1.00
2022-08-24T11:30:00.832Z,1.00
2022-08-24T11:32:38.886Z,1.00
2022-08-24T11:35:10.767Z,1.00
2022-08-24T11:37:40.197Z,1.00
2022-08-24T11:40:10.802Z,1.00
2022-08-24T11:43:05.762Z,1.00
2022-08-24T11:45:41.904Z,1.00
2022-08-24T11:48:29.893Z,1.00
2022-08-24T11:51:02.292Z,1.00
2022-08-24T11:56:18.727Z,1.00
2022-08-24T11:58:56.183Z,1.00
2022-08-24T12:01:32.903Z,1.00
2022-08-24T12:04:11.592Z,1.00
2022-08-24T12:06:51.083Z,1.00
2022-08-24T12:09:38.060Z,1.00
2022-08-24T12:12:14.694Z,1.00
2022-08-24T12:14:45.742Z,1.00
2022-08-24T12:17:20.348Z,1.00
2022-08-24T12:19:54.452Z,1.00
2022-08-24T12:22:23.688Z,1.00
2022-08-24T12:24:55.140Z,1.00
2022-08-24T12:27:26.795Z,1.00
2022-08-24T12:30:03.629Z,1.00
2022-08-24T12:32:40.657Z,1.00
2022-08-24T12:35:16.906Z,1.00
2022-08-24T12:37:49.347Z,1.00
2022-08-24T12:40:28.427Z,1.00
2022-08-24T12:43:02.043Z,1.00
2022-08-24T12:45:30.053Z,1.00
2022-08-24T12:48:04.327Z,1.00
2022-08-24T12:50:45.471Z,1.00
2022-08-24T12:53:39.117Z,1.00
2022-08-24T12:56:46.957Z,1.00
2022-08-24T12:59:21.427Z,1.00
2022-08-24T13:02:00.459Z,1.00
2022-08-24T13:04:41.423Z,1.00
2022-08-24T13:07:27.342Z,1.00
2022-08-24T13:10:09.663Z,1.00
2022-08-24T13:13:19.890Z,1.00
2022-08-24T13:16:03.081Z,1.00
2022-08-24T13:19:19.352Z,1.00
2022-08-24T13:21:55.860Z,1.00
2022-08-24T13:25:19.672Z,1.00
2022-08-24T13:28:04.131Z,1.00
2022-08-24T13:30:51.358Z,1.00
2022-08-24T13:33:26.027Z,1.00
2022-08-24T13:36:07.524Z,1.00
2022-08-24T13:39:11.058Z,1.00
2022-08-24T13:42:06.220Z,1.00
2022-08-24T13:45:00.917Z,1.00
2022-08-24T13:55:39.178Z,13.60
2022-08-24T13:58:15.551Z,14.70
2022-08-24T14:00:48.530Z,12.70
2022-08-24T14:03:35.891Z,9.40
2022-08-24T14:06:21.321Z,5.60
2022-08-24T14:08:58.620Z,4.60
2022-08-24T14:11:42.517Z,4.50
2022-08-24T14:14:18.680Z,4.20
2022-08-24T14:17:20.029Z,3.60
2022-08-24T14:20:00.146Z,3.70
2022-08-24T14:22:35.171Z,3.40
2022-08-24T14:25:21.000Z,3.90
2022-08-24T14:27:51.189Z,2.40
2022-08-24T14:30:45.408Z,2.80
2022-08-24T14:33:27.217Z,4.50
2022-08-24T14:36:19.152Z,7.00
2022-08-24T14:39:01.990Z,7.80
2022-08-24T14:41:51.292Z,8.90
2022-08-24T14:44:42.843Z,9.70
2022-08-24T14:47:22.146Z,8.90
2022-08-24T14:50:09.177Z,7.30
2022-08-24T14:53:04.209Z,7.70
2022-08-24T14:55:39.331Z,7.40
2022-08-24T14:58:25.522Z,7.00
2022-08-24T15:06:29.631Z,20.00
2022-08-24T15:09:12.599Z,17.70
2022-08-24T15:11:42.517Z,16.70
2022-08-24T15:14:22.296Z,15.90
2022-08-24T15:17:00.588Z,15.00
2022-08-24T15:19:44.402Z,14.90
2022-08-24T15:22:24.979Z,16.20
2022-08-24T15:25:01.150Z,15.30
2022-08-24T15:27:42.377Z,15.60
2022-08-24T15:30:23.094Z,14.80
2022-08-24T15:32:54.016Z,15.10
2022-08-24T15:35:31.630Z,14.70
2022-08-24T15:38:16.476Z,14.70
2022-08-24T15:40:47.627Z,16.70
2022-08-24T15:43:16.160Z,15.90
2022-08-24T15:45:48.148Z,15.30
2022-08-24T15:48:21.250Z,15.60
2022-08-24T15:50:53.813Z,22.00
2022-08-24T15:53:39.605Z,20.90
2022-08-24T16:06:49.144Z,33.80
2022-08-24T16:09:37.624Z,29.00
2022-08-24T16:12:10.038Z,28.60
2022-08-24T16:14:47.027Z,29.70
2022-08-24T16:20:09.129Z,29.90
2022-08-24T16:22:41.049Z,29.80
2022-08-24T16:25:19.944Z,30.20
2022-08-24T16:27:57.857Z,30.00
2022-08-24T16:30:37.633Z,30.20
2022-08-24T16:33:06.479Z,30.50
2022-08-24T16:35:34.732Z,30.50
2022-08-24T16:38:04.665Z,31.00
2022-08-24T16:40:34.611Z,31.10
2022-08-24T16:43:03.139Z,32.30
2022-08-24T16:45:35.752Z,32.60
2022-08-24T16:48:04.839Z,34.00
2022-08-24T16:55:32.513Z,34.00
2022-08-24T16:58:01.453Z,33.70
2022-08-24T17:00:30.078Z,32.70
2022-08-24T17:02:58.094Z,30.90
2022-08-24T17:05:26.121Z,31.60
2022-08-24T17:07:54.326Z,32.00
2022-08-24T17:10:23.651Z,33.30
2022-08-24T17:12:53.040Z,34.40
